sensor_id;sensor_type;location;lat;lon;timestamp;P1;durP1;ratioP1;P2;durP2;ratioP2
79781;SDS011;69262;48.470;7.960;2023-04-25T04:19:32;1.40;;;1.30;;
79781;SDS011;69262;48.470;7.960;2023-04-25T04:22:44;2.60;;;1.85;;
79781;SDS011;69262;48.470;7.960;2023-04-25T04:25:47;3.78;;;2.05;;
79781;SDS011;69262;48.470;7.960;2023-04-25T04:29:06;1.92;;;1.83;;
79781;SDS011;69262;48.470;7.960;2023-04-25T04:32:36;1.90;;;1.73;;
79781;SDS011;69262;48.470;7.960;2023-04-25T04:35:37;1.75;;;1.48;;
79781;SDS011;69262;48.470;7.960;2023-04-25T04:38:39;2.03;;;1.60;;
79781;SDS011;69262;48.470;7.960;2023-04-25T04:41:41;1.98;;;1.75;;
79781;SDS011;69262;48.470;7.960;2023-04-25T04:45:01;1.50;;;1.40;;
79781;SDS011;69262;48.470;7.960;2023-04-25T04:48:29;1.48;;;1.38;;
79781;SDS011;69262;48.470;7.960;2023-04-25T04:51:44;1.40;;;1.25;;
79781;SDS011;69262;48.470;7.960;2023-04-25T04:55:04;1.92;;;1.55;;
79781;SDS011;69262;48.470;7.960;2023-04-25T04:58:19;2.30;;;1.58;;
79781;SDS011;69262;48.470;7.960;2023-04-25T05:01:38;1.50;;;1.40;;
79781;SDS011;69262;48.470;7.960;2023-04-25T05:04:51;1.33;;;1.23;;
79781;SDS011;69262;48.470;7.960;2023-04-25T05:08:15;1.55;;;1.45;;
79781;SDS011;69262;48.470;7.960;2023-04-25T05:11:27;2.17;;;1.58;;
79781;SDS011;69262;48.470;7.960;2023-04-25T05:14:46;1.42;;;1.33;;
79781;SDS011;69262;48.470;7.960;2023-04-25T05:18:15;1.73;;;1.30;;
79781;SDS011;69262;48.470;7.960;2023-04-25T05:21:21;1.50;;;1.40;;
79781;SDS011;69262;48.470;7.960;2023-04-25T05:24:57;1.73;;;1.30;;
79781;SDS011;69262;48.470;7.960;2023-04-25T05:28:12;1.67;;;1.48;;
79781;SDS011;69262;48.470;7.960;2023-04-25T05:31:31;1.92;;;1.60;;
79781;SDS011;69262;48.470;7.960;2023-04-25T05:34:36;1.73;;;1.50;;
79781;SDS011;69262;48.470;7.960;2023-04-25T05:37:40;1.67;;;1.58;;
79781;SDS011;69262;48.470;7.960;2023-04-25T05:40:45;1.73;;;1.60;;
79781;SDS011;69262;48.470;7.960;2023-04-25T05:43:54;1.75;;;1.30;;
79781;SDS011;69262;48.470;7.960;2023-04-25T05:46:59;1.35;;;1.35;;
79781;SDS011;69262;48.470;7.960;2023-04-25T05:50:20;1.77;;;1.60;;
79781;SDS011;69262;48.470;7.960;2023-04-25T05:53:35;2.45;;;1.45;;
79781;SDS011;69262;48.470;7.960;2023-04-25T05:56:36;1.42;;;1.33;;
79781;SDS011;69262;48.470;7.960;2023-04-25T05:59:37;1.90;;;1.50;;
79781;SDS011;69262;48.470;7.960;2023-04-25T06:02:37;1.50;;;1.40;;
79781;SDS011;69262;48.470;7.960;2023-04-25T06:05:38;2.25;;;1.20;;
79781;SDS011;69262;48.470;7.960;2023-04-25T06:08:38;2.05;;;1.67;;
79781;SDS011;69262;48.470;7.960;2023-04-25T06:11:39;1.65;;;1.50;;
79781;SDS011;69262;48.470;7.960;2023-04-25T06:14:40;2.03;;;1.30;;
79781;SDS011;69262;48.470;7.960;2023-04-25T06:17:40;1.60;;;1.40;;
79781;SDS011;69262;48.470;7.960;2023-04-25T06:20:41;2.95;;;1.73;;
79781;SDS011;69262;48.470;7.960;2023-04-25T06:23:41;1.48;;;1.38;;
79781;SDS011;69262;48.470;7.960;2023-04-25T06:26:45;1.30;;;1.30;;
79781;SDS011;69262;48.470;7.960;2023-04-25T06:29:48;3.53;;;1.60;;
79781;SDS011;69262;48.470;7.960;2023-04-25T06:32:48;2.35;;;1.40;;
79781;SDS011;69262;48.470;7.960;2023-04-25T06:35:49;1.85;;;1.60;;
79781;SDS011;69262;48.470;7.960;2023-04-25T06:38:52;4.13;;;1.58;;
79781;SDS011;69262;48.470;7.960;2023-04-25T06:41:53;2.67;;;1.63;;
79781;SDS011;69262;48.470;7.960;2023-04-25T06:45:14;2.83;;;1.70;;
79781;SDS011;69262;48.470;7.960;2023-04-25T06:48:15;1.88;;;1.60;;
79781;SDS011;69262;48.470;7.960;2023-04-25T06:51:16;2.28;;;1.67;;
79781;SDS011;69262;48.470;7.960;2023-04-25T06:54:18;1.65;;;1.55;;
79781;SDS011;69262;48.470;7.960;2023-04-25T06:57:29;1.88;;;1.70;;
79781;SDS011;69262;48.470;7.960;2023-04-25T07:00:34;2.28;;;1.70;;
79781;SDS011;69262;48.470;7.960;2023-04-25T07:03:34;1.70;;;1.60;;
79781;SDS011;69262;48.470;7.960;2023-04-25T07:06:41;2.42;;;1.80;;
79781;SDS011;69262;48.470;7.960;2023-04-25T07:09:43;2.40;;;1.70;;
79781;SDS011;69262;48.470;7.960;2023-04-25T07:12:44;1.90;;;1.60;;
79781;SDS011;69262;48.470;7.960;2023-04-25T07:15:44;1.70;;;1.60;;
79781;SDS011;69262;48.470;7.960;2023-04-25T07:18:45;3.60;;;1.73;;
79781;SDS011;69262;48.470;7.960;2023-04-25T07:21:46;4.28;;;1.58;;
79781;SDS011;69262;48.470;7.960;2023-04-25T07:24:46;9.50;;;1.90;;
79781;SDS011;69262;48.470;7.960;2023-04-25T07:27:50;2.72;;;2.10;;
79781;SDS011;69262;48.470;7.960;2023-04-25T07:30:52;1.90;;;1.77;;
79781;SDS011;69262;48.470;7.960;2023-04-25T07:33:53;3.63;;;1.80;;
79781;SDS011;69262;48.470;7.960;2023-04-25T07:36:53;2.10;;;1.70;;
79781;SDS011;69262;48.470;7.960;2023-04-25T07:39:55;1.80;;;1.70;;
79781;SDS011;69262;48.470;7.960;2023-04-25T07:42:55;1.90;;;1.70;;
79781;SDS011;69262;48.470;7.960;2023-04-25T07:46:03;4.00;;;1.80;;
79781;SDS011;69262;48.470;7.960;2023-04-25T07:49:06;1.90;;;1.55;;
79781;SDS011;69262;48.470;7.960;2023-04-25T07:52:07;1.80;;;1.58;;
79781;SDS011;69262;48.470;7.960;2023-04-25T07:55:09;1.55;;;1.45;;
79781;SDS011;69262;48.470;7.960;2023-04-25T07:58:26;2.65;;;1.50;;
79781;SDS011;69262;48.470;7.960;2023-04-25T08:01:33;3.42;;;1.52;;
79781;SDS011;69262;48.470;7.960;2023-04-25T08:04:37;2.75;;;1.30;;
79781;SDS011;69262;48.470;7.960;2023-04-25T08:07:40;3.15;;;1.55;;
79781;SDS011;69262;48.470;7.960;2023-04-25T08:10:42;1.30;;;1.20;;
79781;SDS011;69262;48.470;7.960;2023-04-25T08:13:43;1.40;;;1.30;;
79781;SDS011;69262;48.470;7.960;2023-04-25T08:16:43;2.85;;;1.73;;
79781;SDS011;69262;48.470;7.960;2023-04-25T08:19:44;4.78;;;1.77;;
79781;SDS011;69262;48.470;7.960;2023-04-25T08:22:52;2.00;;;1.50;;
79781;SDS011;69262;48.470;7.960;2023-04-25T08:26:16;10.63;;;1.77;;
79781;SDS011;69262;48.470;7.960;2023-04-25T08:29:17;3.47;;;1.42;;
79781;SDS011;69262;48.470;7.960;2023-04-25T08:32:18;1.40;;;1.33;;
79781;SDS011;69262;48.470;7.960;2023-04-25T08:35:33;2.92;;;1.30;;
79781;SDS011;69262;48.470;7.960;2023-04-25T08:38:34;3.00;;;1.33;;
79781;SDS011;69262;48.470;7.960;2023-04-25T08:41:37;4.00;;;1.20;;
79781;SDS011;69262;48.470;7.960;2023-04-25T08:44:40;3.97;;;1.55;;
79781;SDS011;69262;48.470;7.960;2023-04-25T08:47:40;1.63;;;1.40;;
79781;SDS011;69262;48.470;7.960;2023-04-25T08:50:50;5.28;;;1.33;;
79781;SDS011;69262;48.470;7.960;2023-04-25T08:53:52;1.83;;;1.17;;
79781;SDS011;69262;48.470;7.960;2023-04-25T08:56:54;3.25;;;1.35;;
79781;SDS011;69262;48.470;7.960;2023-04-25T08:59:57;2.22;;;1.50;;
79781;SDS011;69262;48.470;7.960;2023-04-25T09:02:59;1.55;;;1.45;;
79781;SDS011;69262;48.470;7.960;2023-04-25T09:06:03;2.90;;;1.30;;
79781;SDS011;69262;48.470;7.960;2023-04-25T09:09:05;2.10;;;1.40;;
79781;SDS011;69262;48.470;7.960;2023-04-25T09:12:07;2.60;;;1.42;;
79781;SDS011;69262;48.470;7.960;2023-04-25T09:15:10;2.35;;;1.30;;
79781;SDS011;69262;48.470;7.960;2023-04-25T09:18:33;1.35;;;1.20;;
79781;SDS011;69262;48.470;7.960;2023-04-25T09:21:35;1.95;;;1.17;;
79781;SDS011;69262;48.470;7.960;2023-04-25T09:24:36;3.40;;;1.20;;
79781;SDS011;69262;48.470;7.960;2023-04-25T09:27:51;1.50;;;1.40;;
79781;SDS011;69262;48.470;7.960;2023-04-25T09:30:57;1.52;;;1.20;;
79781;SDS011;69262;48.470;7.960;2023-04-25T09:34:04;1.40;;;1.30;;
79781;SDS011;69262;48.470;7.960;2023-04-25T09:37:16;3.38;;;1.30;;
79781;SDS011;69262;48.470;7.960;2023-04-25T09:40:40;2.60;;;1.45;;
79781;SDS011;69262;48.470;7.960;2023-04-25T09:43:48;1.67;;;1.20;;
79781;SDS011;69262;48.470;7.960;2023-04-25T09:46:49;1.92;;;1.38;;
79781;SDS011;69262;48.470;7.960;2023-04-25T09:49:55;1.45;;;1.35;;
79781;SDS011;69262;48.470;7.960;2023-04-25T09:53:03;1.40;;;1.30;;
79781;SDS011;69262;48.470;7.960;2023-04-25T09:56:25;1.45;;;1.20;;
79781;SDS011;69262;48.470;7.960;2023-04-25T09:59:29;1.00;;;1.00;;
79781;SDS011;69262;48.470;7.960;2023-04-25T10:02:33;1.33;;;1.00;;
79781;SDS011;69262;48.470;7.960;2023-04-25T10:05:40;1.40;;;1.30;;
79781;SDS011;69262;48.470;7.960;2023-04-25T10:08:41;1.90;;;1.38;;
79781;SDS011;69262;48.470;7.960;2023-04-25T10:11:43;1.40;;;1.20;;
79781;SDS011;69262;48.470;7.960;2023-04-25T10:14:46;1.63;;;0.85;;
79781;SDS011;69262;48.470;7.960;2023-04-25T10:17:48;1.92;;;1.10;;
79781;SDS011;69262;48.470;7.960;2023-04-25T10:20:50;2.08;;;1.20;;
79781;SDS011;69262;48.470;7.960;2023-04-25T10:23:51;1.38;;;1.27;;
79781;SDS011;69262;48.470;7.960;2023-04-25T10:26:52;1.25;;;1.10;;
79781;SDS011;69262;48.470;7.960;2023-04-25T10:30:00;1.02;;;1.00;;
79781;SDS011;69262;48.470;7.960;2023-04-25T10:33:16;1.90;;;1.10;;
79781;SDS011;69262;48.470;7.960;2023-04-25T10:36:18;1.20;;;1.10;;
79781;SDS011;69262;48.470;7.960;2023-04-25T10:39:26;1.58;;;1.35;;
79781;SDS011;69262;48.470;7.960;2023-04-25T10:42:28;1.10;;;1.00;;
79781;SDS011;69262;48.470;7.960;2023-04-25T10:45:28;1.10;;;1.00;;
79781;SDS011;69262;48.470;7.960;2023-04-25T10:48:30;1.20;;;1.10;;
79781;SDS011;69262;48.470;7.960;2023-04-25T10:51:32;0.90;;;0.90;;
79781;SDS011;69262;48.470;7.960;2023-04-25T10:54:33;4.78;;;1.15;;
79781;SDS011;69262;48.470;7.960;2023-04-25T11:00:38;0.90;;;0.90;;
79781;SDS011;69262;48.470;7.960;2023-04-25T11:03:40;1.55;;;1.17;;
79781;SDS011;69262;48.470;7.960;2023-04-25T11:09:52;2.05;;;0.90;;
79781;SDS011;69262;48.470;7.960;2023-04-25T11:12:53;3.00;;;1.10;;
79781;SDS011;69262;48.470;7.960;2023-04-25T11:15:54;1.30;;;1.20;;
79781;SDS011;69262;48.470;7.960;2023-04-25T11:18:56;1.50;;;1.00;;
79781;SDS011;69262;48.470;7.960;2023-04-25T11:22:01;2.72;;;1.00;;
79781;SDS011;69262;48.470;7.960;2023-04-25T11:25:06;1.83;;;0.90;;
79781;SDS011;69262;48.470;7.960;2023-04-25T11:28:07;1.23;;;1.13;;
79781;SDS011;69262;48.470;7.960;2023-04-25T11:31:08;1.10;;;1.00;;
79781;SDS011;69262;48.470;7.960;2023-04-25T11:34:09;0.82;;;0.80;;
79781;SDS011;69262;48.470;7.960;2023-04-25T11:37:10;1.10;;;1.00;;
79781;SDS011;69262;48.470;7.960;2023-04-25T11:40:12;2.50;;;0.90;;
79781;SDS011;69262;48.470;7.960;2023-04-25T11:43:13;1.00;;;1.00;;
79781;SDS011;69262;48.470;7.960;2023-04-25T11:46:13;2.15;;;1.02;;
79781;SDS011;69262;48.470;7.960;2023-04-25T11:49:14;1.35;;;0.88;;
79781;SDS011;69262;48.470;7.960;2023-04-25T11:52:15;1.35;;;0.90;;
79781;SDS011;69262;48.470;7.960;2023-04-25T11:55:17;1.98;;;0.98;;
79781;SDS011;69262;48.470;7.960;2023-04-25T11:58:18;0.85;;;0.80;;
79781;SDS011;69262;48.470;7.960;2023-04-25T12:01:29;0.90;;;0.90;;
79781;SDS011;69262;48.470;7.960;2023-04-25T12:04:30;1.20;;;1.10;;
79781;SDS011;69262;48.470;7.960;2023-04-25T12:07:32;1.15;;;0.80;;
79781;SDS011;69262;48.470;7.960;2023-04-25T12:10:32;5.05;;;1.15;;
79781;SDS011;69262;48.470;7.960;2023-04-25T12:13:37;3.97;;;1.77;;
79781;SDS011;69262;48.470;7.960;2023-04-25T12:16:42;1.58;;;1.00;;
79781;SDS011;69262;48.470;7.960;2023-04-25T12:19:46;6.90;;;1.50;;
79781;SDS011;69262;48.470;7.960;2023-04-25T12:22:47;1.42;;;1.15;;
79781;SDS011;69262;48.470;7.960;2023-04-25T12:25:48;1.20;;;1.10;;
79781;SDS011;69262;48.470;7.960;2023-04-25T12:28:49;4.30;;;1.35;;
79781;SDS011;69262;48.470;7.960;2023-04-25T12:31:49;1.98;;;1.30;;
79781;SDS011;69262;48.470;7.960;2023-04-25T12:34:51;2.03;;;1.05;;
79781;SDS011;69262;48.470;7.960;2023-04-25T12:37:52;2.30;;;1.05;;
79781;SDS011;69262;48.470;7.960;2023-04-25T12:40:52;1.88;;;0.95;;
79781;SDS011;69262;48.470;7.960;2023-04-25T12:43:54;1.13;;;1.10;;
79781;SDS011;69262;48.470;7.960;2023-04-25T12:46:54;2.22;;;1.15;;
79781;SDS011;69262;48.470;7.960;2023-04-25T12:49:55;1.15;;;1.05;;
79781;SDS011;69262;48.470;7.960;2023-04-25T12:52:55;2.35;;;1.08;;
79781;SDS011;69262;48.470;7.960;2023-04-25T12:55:55;1.25;;;0.90;;
79781;SDS011;69262;48.470;7.960;2023-04-25T12:58:57;1.30;;;0.93;;
79781;SDS011;69262;48.470;7.960;2023-04-25T13:01:58;1.15;;;1.00;;
79781;SDS011;69262;48.470;7.960;2023-04-25T13:04:59;1.55;;;0.90;;
79781;SDS011;69262;48.470;7.960;2023-04-25T13:07:59;1.15;;;1.05;;
79781;SDS011;69262;48.470;7.960;2023-04-25T13:11:00;1.58;;;1.27;;
79781;SDS011;69262;48.470;7.960;2023-04-25T13:14:00;2.53;;;1.30;;
79781;SDS011;69262;48.470;7.960;2023-04-25T13:17:01;2.15;;;1.30;;
79781;SDS011;69262;48.470;7.960;2023-04-25T13:20:02;1.45;;;1.20;;
79781;SDS011;69262;48.470;7.960;2023-04-25T13:23:06;1.40;;;1.30;;
79781;SDS011;69262;48.470;7.960;2023-04-25T13:26:06;1.30;;;1.20;;
79781;SDS011;69262;48.470;7.960;2023-04-25T13:29:06;1.10;;;1.10;;
79781;SDS011;69262;48.470;7.960;2023-04-25T13:32:08;1.30;;;1.20;;
79781;SDS011;69262;48.470;7.960;2023-04-25T13:35:10;1.30;;;1.20;;
79781;SDS011;69262;48.470;7.960;2023-04-25T13:38:12;1.48;;;1.00;;
79781;SDS011;69262;48.470;7.960;2023-04-25T13:41:13;1.25;;;1.20;;
79781;SDS011;69262;48.470;7.960;2023-04-25T13:44:18;1.10;;;1.00;;
79781;SDS011;69262;48.470;7.960;2023-04-25T13:47:18;0.90;;;0.90;;
79781;SDS011;69262;48.470;7.960;2023-04-25T13:50:19;1.23;;;1.23;;
79781;SDS011;69262;48.470;7.960;2023-04-25T13:53:20;1.17;;;1.17;;
79781;SDS011;69262;48.470;7.960;2023-04-25T13:56:21;0.80;;;0.80;;
79781;SDS011;69262;48.470;7.960;2023-04-25T13:59:22;0.85;;;0.85;;
79781;SDS011;69262;48.470;7.960;2023-04-25T14:02:22;1.17;;;1.10;;
79781;SDS011;69262;48.470;7.960;2023-04-25T14:05:23;1.27;;;1.17;;
79781;SDS011;69262;48.470;7.960;2023-04-25T14:08:23;7.63;;;1.65;;
79781;SDS011;69262;48.470;7.960;2023-04-25T14:11:23;2.17;;;0.93;;
79781;SDS011;69262;48.470;7.960;2023-04-25T14:14:24;1.85;;;0.95;;
79781;SDS011;69262;48.470;7.960;2023-04-25T14:17:25;1.10;;;1.00;;
79781;SDS011;69262;48.470;7.960;2023-04-25T14:20:26;1.42;;;1.00;;
79781;SDS011;69262;48.470;7.960;2023-04-25T14:23:27;1.30;;;1.20;;
79781;SDS011;69262;48.470;7.960;2023-04-25T14:26:27;2.97;;;1.20;;
79781;SDS011;69262;48.470;7.960;2023-04-25T14:29:27;2.05;;;1.13;;
79781;SDS011;69262;48.470;7.960;2023-04-25T14:32:28;1.13;;;1.02;;
79781;SDS011;69262;48.470;7.960;2023-04-25T14:35:28;1.00;;;1.00;;
79781;SDS011;69262;48.470;7.960;2023-04-25T14:38:29;1.20;;;1.10;;
79781;SDS011;69262;48.470;7.960;2023-04-25T14:41:29;0.90;;;0.90;;
79781;SDS011;69262;48.470;7.960;2023-04-25T14:44:30;0.80;;;0.80;;
79781;SDS011;69262;48.470;7.960;2023-04-25T14:47:30;0.82;;;0.82;;
79781;SDS011;69262;48.470;7.960;2023-04-25T14:50:32;2.60;;;1.00;;
79781;SDS011;69262;48.470;7.960;2023-04-25T14:53:32;2.28;;;1.02;;
79781;SDS011;69262;48.470;7.960;2023-04-25T14:56:32;1.10;;;1.00;;
79781;SDS011;69262;48.470;7.960;2023-04-25T14:59:33;1.80;;;0.85;;
79781;SDS011;69262;48.470;7.960;2023-04-25T15:02:33;0.80;;;0.80;;
79781;SDS011;69262;48.470;7.960;2023-04-25T15:05:34;1.38;;;0.90;;
79781;SDS011;69262;48.470;7.960;2023-04-25T15:08:35;0.98;;;0.88;;
79781;SDS011;69262;48.470;7.960;2023-04-25T15:11:36;0.98;;;0.90;;
79781;SDS011;69262;48.470;7.960;2023-04-25T15:14:37;1.02;;;0.93;;
79781;SDS011;69262;48.470;7.960;2023-04-25T15:17:38;2.80;;;0.95;;
79781;SDS011;69262;48.470;7.960;2023-04-25T15:20:38;1.13;;;0.90;;
79781;SDS011;69262;48.470;7.960;2023-04-25T15:23:40;1.55;;;0.90;;
79781;SDS011;69262;48.470;7.960;2023-04-25T15:26:40;2.33;;;1.20;;
79781;SDS011;69262;48.470;7.960;2023-04-25T15:29:40;0.93;;;0.80;;
79781;SDS011;69262;48.470;7.960;2023-04-25T15:32:44;0.80;;;0.80;;
79781;SDS011;69262;48.470;7.960;2023-04-25T15:35:46;1.15;;;1.05;;
79781;SDS011;69262;48.470;7.960;2023-04-25T15:38:47;1.00;;;1.00;;
79781;SDS011;69262;48.470;7.960;2023-04-25T15:41:47;0.90;;;0.90;;
79781;SDS011;69262;48.470;7.960;2023-04-25T15:44:47;1.08;;;1.05;;
79781;SDS011;69262;48.470;7.960;2023-04-25T15:47:48;0.80;;;0.80;;
79781;SDS011;69262;48.470;7.960;2023-04-25T15:50:50;1.13;;;1.02;;
79781;SDS011;69262;48.470;7.960;2023-04-25T15:53:50;1.17;;;0.90;;
79781;SDS011;69262;48.470;7.960;2023-04-25T15:56:51;1.00;;;1.00;;
79781;SDS011;69262;48.470;7.960;2023-04-25T15:59:51;0.80;;;0.80;;
79781;SDS011;69262;48.470;7.960;2023-04-25T16:02:51;0.98;;;0.98;;
79781;SDS011;69262;48.470;7.960;2023-04-25T16:05:52;0.90;;;0.90;;
79781;SDS011;69262;48.470;7.960;2023-04-25T16:08:52;1.30;;;1.08;;
79781;SDS011;69262;48.470;7.960;2023-04-25T16:11:54;0.80;;;0.80;;
79781;SDS011;69262;48.470;7.960;2023-04-25T16:14:54;0.80;;;0.80;;
79781;SDS011;69262;48.470;7.960;2023-04-25T16:17:57;0.90;;;0.90;;
79781;SDS011;69262;48.470;7.960;2023-04-25T16:20:57;1.00;;;0.82;;
79781;SDS011;69262;48.470;7.960;2023-04-25T16:23:57;0.85;;;0.85;;
79781;SDS011;69262;48.470;7.960;2023-04-25T16:26:58;0.77;;;0.77;;
79781;SDS011;69262;48.470;7.960;2023-04-25T16:29:59;0.90;;;0.90;;
79781;SDS011;69262;48.470;7.960;2023-04-25T16:33:00;1.15;;;0.80;;
79781;SDS011;69262;48.470;7.960;2023-04-25T16:36:00;0.90;;;0.90;;
79781;SDS011;69262;48.470;7.960;2023-04-25T16:39:03;0.75;;;0.75;;
79781;SDS011;69262;48.470;7.960;2023-04-25T16:42:04;1.13;;;1.02;;
79781;SDS011;69262;48.470;7.960;2023-04-25T16:45:05;2.10;;;1.15;;
79781;SDS011;69262;48.470;7.960;2023-04-25T16:48:05;0.90;;;0.90;;
79781;SDS011;69262;48.470;7.960;2023-04-25T16:51:06;1.02;;;0.95;;
79781;SDS011;69262;48.470;7.960;2023-04-25T16:54:06;0.90;;;0.90;;
79781;SDS011;69262;48.470;7.960;2023-04-25T16:57:06;1.05;;;0.95;;
79781;SDS011;69262;48.470;7.960;2023-04-25T17:00:10;0.80;;;0.80;;
79781;SDS011;69262;48.470;7.960;2023-04-25T17:03:12;0.90;;;0.90;;
79781;SDS011;69262;48.470;7.960;2023-04-25T17:06:13;0.73;;;0.73;;
79781;SDS011;69262;48.470;7.960;2023-04-25T17:09:13;1.90;;;1.00;;
79781;SDS011;69262;48.470;7.960;2023-04-25T17:12:14;0.93;;;0.93;;
79781;SDS011;69262;48.470;7.960;2023-04-25T17:15:15;1.30;;;0.80;;
79781;SDS011;69262;48.470;7.960;2023-04-25T17:18:15;0.90;;;0.90;;
79781;SDS011;69262;48.470;7.960;2023-04-25T17:21:16;0.80;;;0.80;;
79781;SDS011;69262;48.470;7.960;2023-04-25T17:24:17;0.90;;;0.90;;
79781;SDS011;69262;48.470;7.960;2023-04-25T17:27:20;0.80;;;0.80;;
79781;SDS011;69262;48.470;7.960;2023-04-25T17:30:20;1.17;;;0.88;;
79781;SDS011;69262;48.470;7.960;2023-04-25T17:33:21;1.50;;;1.20;;
79781;SDS011;69262;48.470;7.960;2023-04-25T17:36:25;0.88;;;0.85;;
79781;SDS011;69262;48.470;7.960;2023-04-25T17:39:26;1.35;;;1.00;;
79781;SDS011;69262;48.470;7.960;2023-04-25T17:42:27;0.90;;;0.90;;
79781;SDS011;69262;48.470;7.960;2023-04-25T17:45:27;1.00;;;0.90;;
79781;SDS011;69262;48.470;7.960;2023-04-25T17:48:33;1.10;;;1.00;;
79781;SDS011;69262;48.470;7.960;2023-04-25T17:51:33;1.20;;;1.00;;
79781;SDS011;69262;48.470;7.960;2023-04-25T17:54:34;1.10;;;1.00;;
79781;SDS011;69262;48.470;7.960;2023-04-25T17:57:35;0.80;;;0.80;;
79781;SDS011;69262;48.470;7.960;2023-04-25T18:00:36;1.00;;;1.00;;
79781;SDS011;69262;48.470;7.960;2023-04-25T18:03:37;0.90;;;0.90;;
79781;SDS011;69262;48.470;7.960;2023-04-25T18:06:39;1.05;;;1.05;;
79781;SDS011;69262;48.470;7.960;2023-04-25T18:09:40;1.10;;;0.93;;
79781;SDS011;69262;48.470;7.960;2023-04-25T18:12:40;1.20;;;1.00;;
79781;SDS011;69262;48.470;7.960;2023-04-25T18:15:42;1.10;;;1.00;;
79781;SDS011;69262;48.470;7.960;2023-04-25T18:18:42;1.33;;;0.90;;
79781;SDS011;69262;48.470;7.960;2023-04-25T18:21:46;2.10;;;0.98;;
79781;SDS011;69262;48.470;7.960;2023-04-25T18:24:49;1.45;;;0.98;;
79781;SDS011;69262;48.470;7.960;2023-04-25T18:27:49;1.08;;;0.98;;
79781;SDS011;69262;48.470;7.960;2023-04-25T18:30:50;1.30;;;1.20;;
79781;SDS011;69262;48.470;7.960;2023-04-25T18:33:50;2.40;;;0.93;;
79781;SDS011;69262;48.470;7.960;2023-04-25T18:36:51;1.00;;;0.93;;
79781;SDS011;69262;48.470;7.960;2023-04-25T18:39:52;1.75;;;1.33;;
79781;SDS011;69262;48.470;7.960;2023-04-25T18:42:53;2.17;;;1.38;;
79781;SDS011;69262;48.470;7.960;2023-04-25T18:45:53;0.80;;;0.80;;
79781;SDS011;69262;48.470;7.960;2023-04-25T18:48:53;1.23;;;0.95;;
79781;SDS011;69262;48.470;7.960;2023-04-25T18:51:54;1.27;;;1.08;;
79781;SDS011;69262;48.470;7.960;2023-04-25T18:54:56;0.90;;;0.90;;
79781;SDS011;69262;48.470;7.960;2023-04-25T18:57:56;1.45;;;0.80;;
79781;SDS011;69262;48.470;7.960;2023-04-25T19:00:57;1.05;;;1.00;;
79781;SDS011;69262;48.470;7.960;2023-04-25T19:03:58;0.90;;;0.90;;
79781;SDS011;69262;48.470;7.960;2023-04-25T19:06:58;3.05;;;1.23;;
79781;SDS011;69262;48.470;7.960;2023-04-25T19:09:59;1.05;;;1.00;;
79781;SDS011;69262;48.470;7.960;2023-04-25T19:12:59;1.40;;;1.08;;
79781;SDS011;69262;48.470;7.960;2023-04-25T19:15:59;1.20;;;0.93;;
79781;SDS011;69262;48.470;7.960;2023-04-25T19:19:00;0.95;;;0.95;;
79781;SDS011;69262;48.470;7.960;2023-04-25T19:22:00;1.30;;;1.20;;
79781;SDS011;69262;48.470;7.960;2023-04-25T19:25:01;1.20;;;1.10;;
79781;SDS011;69262;48.470;7.960;2023-04-25T19:28:02;1.67;;;1.10;;
79781;SDS011;69262;48.470;7.960;2023-04-25T19:31:03;1.85;;;0.90;;
79781;SDS011;69262;48.470;7.960;2023-04-25T19:34:04;1.83;;;1.23;;
79781;SDS011;69262;48.470;7.960;2023-04-25T19:37:05;1.02;;;1.02;;
79781;SDS011;69262;48.470;7.960;2023-04-25T19:40:06;0.85;;;0.85;;
79781;SDS011;69262;48.470;7.960;2023-04-25T19:43:16;0.93;;;0.93;;
79781;SDS011;69262;48.470;7.960;2023-04-25T19:46:20;0.82;;;0.82;;
79781;SDS011;69262;48.470;7.960;2023-04-25T19:49:24;1.33;;;1.23;;
79781;SDS011;69262;48.470;7.960;2023-04-25T19:52:25;0.93;;;0.93;;
79781;SDS011;69262;48.470;7.960;2023-04-25T19:55:26;1.00;;;0.88;;
79781;SDS011;69262;48.470;7.960;2023-04-25T19:58:27;1.20;;;1.10;;
79781;SDS011;69262;48.470;7.960;2023-04-25T20:01:28;1.10;;;1.10;;
79781;SDS011;69262;48.470;7.960;2023-04-25T20:04:29;1.42;;;1.08;;
79781;SDS011;69262;48.470;7.960;2023-04-25T20:07:30;0.90;;;0.90;;
79781;SDS011;69262;48.470;7.960;2023-04-25T20:10:31;0.70;;;0.70;;
79781;SDS011;69262;48.470;7.960;2023-04-25T20:13:32;1.05;;;1.05;;
79781;SDS011;69262;48.470;7.960;2023-04-25T20:16:32;1.25;;;1.17;;
79781;SDS011;69262;48.470;7.960;2023-04-25T20:19:32;0.90;;;0.90;;
79781;SDS011;69262;48.470;7.960;2023-04-25T20:22:33;1.58;;;1.10;;
79781;SDS011;69262;48.470;7.960;2023-04-25T20:25:37;1.00;;;1.00;;
79781;SDS011;69262;48.470;7.960;2023-04-25T20:28:38;1.40;;;1.00;;
79781;SDS011;69262;48.470;7.960;2023-04-25T20:31:39;1.40;;;1.27;;
79781;SDS011;69262;48.470;7.960;2023-04-25T20:34:39;0.85;;;0.85;;
79781;SDS011;69262;48.470;7.960;2023-04-25T20:37:40;1.00;;;1.00;;
79781;SDS011;69262;48.470;7.960;2023-04-25T20:40:40;1.05;;;1.05;;
79781;SDS011;69262;48.470;7.960;2023-04-25T20:43:41;1.08;;;1.08;;
79781;SDS011;69262;48.470;7.960;2023-04-25T20:46:41;1.33;;;1.17;;
79781;SDS011;69262;48.470;7.960;2023-04-25T20:49:41;0.80;;;0.80;;
79781;SDS011;69262;48.470;7.960;2023-04-25T20:52:42;1.38;;;1.05;;
79781;SDS011;69262;48.470;7.960;2023-04-25T20:55:43;0.90;;;0.90;;
79781;SDS011;69262;48.470;7.960;2023-04-25T20:58:43;0.90;;;0.90;;
79781;SDS011;69262;48.470;7.960;2023-04-25T21:01:44;1.00;;;1.00;;
79781;SDS011;69262;48.470;7.960;2023-04-25T21:04:45;1.05;;;1.05;;
79781;SDS011;69262;48.470;7.960;2023-04-25T21:07:45;1.42;;;1.00;;
79781;SDS011;69262;48.470;7.960;2023-04-25T21:10:46;0.98;;;0.98;;
79781;SDS011;69262;48.470;7.960;2023-04-25T21:13:46;0.90;;;0.90;;
79781;SDS011;69262;48.470;7.960;2023-04-25T21:16:47;1.20;;;1.10;;
79781;SDS011;69262;48.470;7.960;2023-04-25T21:19:47;0.98;;;0.98;;
79781;SDS011;69262;48.470;7.960;2023-04-25T21:22:48;0.88;;;0.88;;
79781;SDS011;69262;48.470;7.960;2023-04-25T21:25:49;1.00;;;1.00;;
79781;SDS011;69262;48.470;7.960;2023-04-25T21:28:52;1.35;;;1.08;;
79781;SDS011;69262;48.470;7.960;2023-04-25T21:31:52;0.88;;;0.88;;
79781;SDS011;69262;48.470;7.960;2023-04-25T21:34:53;0.90;;;0.90;;
79781;SDS011;69262;48.470;7.960;2023-04-25T21:37:54;0.95;;;0.90;;
79781;SDS011;69262;48.470;7.960;2023-04-25T21:40:54;1.52;;;0.95;;
79781;SDS011;69262;48.470;7.960;2023-04-25T21:43:55;1.90;;;0.88;;
79781;SDS011;69262;48.470;7.960;2023-04-25T21:46:56;0.90;;;0.90;;
79781;SDS011;69262;48.470;7.960;2023-04-25T21:49:56;2.58;;;1.33;;
79781;SDS011;69262;48.470;7.960;2023-04-25T21:52:56;1.05;;;1.00;;
79781;SDS011;69262;48.470;7.960;2023-04-25T21:55:58;1.10;;;1.00;;
79781;SDS011;69262;48.470;7.960;2023-04-25T21:58:58;1.30;;;1.13;;
79781;SDS011;69262;48.470;7.960;2023-04-25T22:01:58;0.90;;;0.90;;
79781;SDS011;69262;48.470;7.960;2023-04-25T22:04:59;1.30;;;1.15;;
79781;SDS011;69262;48.470;7.960;2023-04-25T22:07:59;1.00;;;1.00;;
79781;SDS011;69262;48.470;7.960;2023-04-25T22:11:00;0.70;;;0.70;;
79781;SDS011;69262;48.470;7.960;2023-04-25T22:14:01;2.35;;;1.20;;
79781;SDS011;69262;48.470;7.960;2023-04-25T22:17:01;1.20;;;1.13;;
79781;SDS011;69262;48.470;7.960;2023-04-25T22:20:02;1.10;;;1.00;;
79781;SDS011;69262;48.470;7.960;2023-04-25T22:23:08;1.00;;;1.00;;
79781;SDS011;69262;48.470;7.960;2023-04-25T22:26:09;1.17;;;1.13;;
79781;SDS011;69262;48.470;7.960;2023-04-25T22:29:09;3.75;;;0.93;;
79781;SDS011;69262;48.470;7.960;2023-04-25T22:32:10;1.10;;;0.90;;
79781;SDS011;69262;48.470;7.960;2023-04-25T22:35:10;1.20;;;1.10;;
79781;SDS011;69262;48.470;7.960;2023-04-25T22:38:11;1.00;;;1.00;;
79781;SDS011;69262;48.470;7.960;2023-04-25T22:41:11;1.10;;;1.10;;
79781;SDS011;69262;48.470;7.960;2023-04-25T22:44:12;0.98;;;0.85;;
79781;SDS011;69262;48.470;7.960;2023-04-25T22:47:12;1.08;;;1.08;;